createdAt,value
2023-01-09T00:02:04.311Z,13.02
2023-01-09T00:04:30.982Z,13.17
2023-01-09T00:06:57.662Z,13.12
2023-01-09T00:09:24.696Z,13.23
2023-01-09T00:11:52.368Z,13.18
2023-01-09T00:14:19.452Z,13.07
2023-01-09T00:16:46.438Z,12.92
2023-01-09T00:19:13.155Z,13.12
2023-01-09T00:21:40.051Z,13.27
2023-01-09T00:24:07.295Z,13.19
2023-01-09T00:26:34.601Z,13.17
2023-01-09T00:29:03.564Z,13.22
2023-01-09T00:31:30.317Z,13.27
2023-01-09T00:34:05.026Z,13.18
2023-01-09T00:36:31.935Z,12.98
2023-01-09T00:38:59.026Z,12.98
2023-01-09T00:41:47.192Z,12.88
2023-01-09T00:44:19.934Z,12.70
2023-01-09T00:46:51.731Z,12.60
2023-01-09T00:49:18.732Z,12.53
2023-01-09T00:51:45.862Z,12.38
2023-01-09T00:54:15.955Z,12.39
2023-01-09T00:56:42.834Z,12.41
2023-01-09T00:59:09.880Z,12.63
2023-01-09T01:01:36.861Z,12.45
2023-01-09T01:04:23.739Z,12.60
2023-01-09T01:07:08.979Z,12.36
2023-01-09T01:09:35.698Z,12.61
2023-01-09T01:12:06.935Z,12.71
2023-01-09T01:14:38.074Z,12.61
2023-01-09T01:17:05.849Z,12.49
2023-01-09T01:19:34.246Z,12.46
2023-01-09T01:22:01.536Z,12.53
2023-01-09T01:24:28.313Z,12.72
2023-01-09T01:26:55.080Z,12.56
2023-01-09T01:29:21.761Z,12.52
2023-01-09T01:31:48.550Z,12.42
2023-01-09T01:34:15.166Z,12.43
2023-01-09T01:36:41.867Z,12.52
2023-01-09T01:39:08.581Z,12.41
2023-01-09T01:41:35.456Z,12.35
2023-01-09T01:44:05.544Z,12.36
2023-01-09T01:46:34.325Z,12.23
2023-01-09T01:49:09.541Z,12.22
2023-01-09T01:51:41.376Z,12.26
2023-01-09T01:54:15.716Z,12.04
2023-01-09T01:56:48.700Z,11.76
2023-01-09T01:59:28.016Z,11.98
2023-01-09T02:01:59.121Z,11.93
2023-01-09T02:04:26.672Z,12.11
2023-01-09T02:06:55.778Z,12.33
2023-01-09T02:09:25.108Z,12.33
2023-01-09T02:11:56.426Z,12.15
2023-01-09T02:14:28.947Z,12.30
2023-01-09T02:17:21.656Z,12.09
2023-01-09T02:20:26.797Z,12.03
2023-01-09T02:23:12.154Z,11.89
2023-01-09T02:26:16.454Z,12.20
2023-01-09T02:29:14.085Z,11.84
2023-01-09T02:31:53.026Z,11.85
2023-01-09T02:34:41.436Z,11.96
2023-01-09T02:37:19.934Z,12.23
2023-01-09T02:40:07.397Z,12.05
2023-01-09T02:42:36.305Z,12.00
2023-01-09T02:45:03.425Z,12.00
2023-01-09T02:47:30.035Z,12.05
2023-01-09T02:50:02.355Z,12.21
2023-01-09T02:52:37.432Z,11.97
2023-01-09T02:55:13.311Z,11.75
2023-01-09T02:57:43.094Z,11.65
2023-01-09T03:00:10.325Z,11.82
2023-01-09T03:03:23.308Z,11.65
2023-01-09T03:06:05.367Z,11.65
2023-01-09T03:08:41.648Z,11.73
2023-01-09T03:11:09.021Z,11.65
2023-01-09T03:13:39.614Z,11.78
2023-01-09T03:16:09.664Z,11.28
2023-01-09T03:18:38.600Z,11.43
2023-01-09T03:21:08.081Z,11.23
2023-01-09T03:23:57.933Z,11.21
2023-01-09T03:26:25.473Z,11.28
2023-01-09T03:28:52.849Z,11.09
2023-01-09T03:31:19.528Z,11.10
2023-01-09T03:33:46.340Z,10.94
2023-01-09T03:36:14.883Z,11.15
2023-01-09T03:38:41.542Z,10.87
2023-01-09T03:41:08.267Z,10.63
2023-01-09T03:43:35.561Z,10.57
2023-01-09T03:46:03.093Z,10.73
2023-01-09T03:48:30.043Z,10.98
2023-01-09T03:50:57.222Z,11.11
2023-01-09T03:53:26.308Z,10.84
2023-01-09T03:55:55.439Z,10.80
2023-01-09T03:58:23.342Z,10.84
2023-01-09T04:00:50.964Z,10.84
2023-01-09T04:03:19.908Z,10.86
2023-01-09T04:05:49.165Z,10.96
2023-01-09T04:08:16.168Z,10.82
2023-01-09T04:10:50.555Z,10.77
2023-01-09T04:13:18.125Z,11.03
2023-01-09T04:15:45.210Z,11.01
2023-01-09T04:18:12.394Z,11.03
2023-01-09T04:20:39.143Z,11.08
2023-01-09T04:23:05.885Z,10.99
2023-01-09T04:25:32.937Z,10.77
2023-01-09T04:27:59.675Z,10.76
2023-01-09T04:30:26.422Z,10.75
2023-01-09T04:32:53.149Z,10.82
2023-01-09T04:35:20.296Z,11.01
2023-01-09T04:37:47.212Z,10.78
2023-01-09T04:40:14.201Z,10.54
2023-01-09T04:42:41.278Z,10.70
2023-01-09T04:45:11.941Z,10.84
2023-01-09T04:47:38.637Z,10.94
2023-01-09T04:50:05.443Z,10.79
2023-01-09T04:52:32.216Z,10.72
2023-01-09T04:54:58.859Z,10.63
2023-01-09T04:57:25.736Z,10.82
2023-01-09T04:59:54.050Z,10.58
2023-01-09T05:02:20.977Z,10.42
2023-01-09T05:04:47.656Z,10.69
2023-01-09T05:07:14.563Z,10.46
2023-01-09T05:09:41.288Z,10.58
2023-01-09T05:12:08.023Z,10.44
2023-01-09T05:14:34.675Z,10.58
2023-01-09T05:17:01.422Z,10.51
2023-01-09T05:19:28.095Z,10.59
2023-01-09T05:21:54.748Z,10.81
2023-01-09T05:24:21.470Z,10.87
2023-01-09T05:26:48.187Z,10.71
2023-01-09T05:29:14.885Z,10.58
2023-01-09T05:31:41.613Z,10.62
2023-01-09T05:34:08.561Z,10.79
2023-01-09T05:36:35.230Z,10.88
2023-01-09T05:39:02.792Z,11.10
2023-01-09T05:41:29.521Z,11.03
2023-01-09T05:43:56.468Z,11.01
2023-01-09T05:46:23.234Z,10.93
2023-01-09T05:48:49.864Z,10.89
2023-01-09T05:51:16.801Z,10.89
2023-01-09T05:53:43.457Z,10.97
2023-01-09T05:56:11.690Z,10.86
2023-01-09T05:58:39.141Z,10.81
2023-01-09T06:01:06.527Z,10.87
2023-01-09T06:03:34.216Z,10.69
2023-01-09T06:06:00.841Z,10.76
2023-01-09T06:08:27.595Z,10.52
2023-01-09T06:10:54.205Z,10.41
2023-01-09T06:13:20.870Z,10.38
2023-01-09T06:15:48.491Z,10.35
2023-01-09T06:18:15.899Z,10.56
2023-01-09T06:20:44.963Z,10.69
2023-01-09T06:23:13.468Z,10.80
2023-01-09T06:25:40.970Z,10.69
2023-01-09T06:28:07.894Z,10.94
2023-01-09T06:30:34.626Z,10.94
2023-01-09T06:33:01.375Z,11.09
2023-01-09T06:35:28.017Z,10.87
2023-01-09T06:37:54.797Z,10.84
2023-01-09T06:40:21.439Z,10.94
2023-01-09T06:42:48.535Z,10.68
2023-01-09T06:45:15.819Z,10.48
2023-01-09T06:47:42.497Z,10.57
2023-01-09T06:50:09.915Z,10.22
2023-01-09T06:52:37.200Z,10.45
2023-01-09T06:55:04.131Z,10.18
2023-01-09T06:57:30.875Z,10.57
2023-01-09T06:59:57.877Z,10.55
2023-01-09T07:02:24.765Z,10.45
2023-01-09T07:04:51.507Z,10.53
2023-01-09T07:07:19.768Z,10.76
2023-01-09T07:09:46.515Z,10.75
2023-01-09T07:12:14.778Z,10.51
2023-01-09T07:14:41.697Z,10.49
2023-01-09T07:17:12.303Z,10.83
2023-01-09T07:19:39.168Z,10.41
2023-01-09T07:22:05.801Z,10.67
2023-01-09T07:24:32.547Z,10.86
2023-01-09T07:26:59.212Z,10.98
2023-01-09T07:29:25.866Z,10.63
2023-01-09T07:31:52.495Z,10.73
2023-01-09T07:34:19.549Z,10.87
2023-01-09T07:36:50.608Z,10.83
2023-01-09T07:39:17.586Z,10.88
2023-01-09T07:41:44.889Z,10.84
2023-01-09T07:44:12.280Z,10.61
2023-01-09T07:46:39.295Z,10.80
2023-01-09T07:49:06.411Z,10.78
2023-01-09T07:51:33.119Z,10.77
2023-01-09T07:53:59.890Z,10.55
2023-01-09T07:56:26.569Z,10.69
2023-01-09T07:58:53.369Z,10.60
2023-01-09T08:01:20.284Z,10.54
2023-01-09T08:03:47.023Z,10.71
2023-01-09T08:06:13.781Z,10.56
2023-01-09T08:08:40.401Z,10.49
2023-01-09T08:11:07.161Z,10.57
2023-01-09T08:13:33.869Z,10.49
2023-01-09T08:16:00.668Z,10.72
2023-01-09T08:18:27.407Z,10.36
2023-01-09T08:20:54.078Z,10.38
2023-01-09T08:23:20.846Z,10.53
2023-01-09T08:25:47.696Z,10.58
2023-01-09T08:28:14.434Z,10.43
2023-01-09T08:30:41.220Z,10.57
2023-01-09T08:33:07.925Z,10.77
2023-01-09T08:35:35.322Z,10.57
2023-01-09T08:38:02.250Z,10.45
2023-01-09T08:40:28.956Z,10.76
2023-01-09T08:43:14.033Z,10.59
2023-01-09T08:45:59.426Z,10.60
2023-01-09T08:48:26.105Z,10.58
2023-01-09T08:50:54.231Z,10.90
2023-01-09T08:53:20.987Z,11.13
2023-01-09T08:55:47.828Z,10.78
2023-01-09T08:58:14.496Z,10.99
2023-01-09T09:00:41.603Z,11.11
2023-01-09T09:03:10.971Z,10.80
2023-01-09T09:05:38.031Z,10.89
2023-01-09T09:08:04.830Z,10.73
2023-01-09T09:10:31.524Z,10.72
2023-01-09T09:12:59.794Z,10.64
2023-01-09T09:15:27.926Z,10.83
2023-01-09T09:17:56.092Z,11.04
2023-01-09T09:20:25.124Z,11.26
2023-01-09T09:22:52.194Z,10.90
2023-01-09T09:25:19.649Z,11.12
2023-01-09T09:27:46.859Z,11.47
2023-01-09T09:30:15.968Z,11.30
2023-01-09T09:32:42.926Z,11.35
2023-01-09T09:35:09.986Z,10.83
2023-01-09T09:37:37.217Z,10.88
2023-01-09T09:40:17.561Z,11.00
2023-01-09T09:43:36.407Z,10.95
2023-01-09T09:46:22.492Z,11.10
2023-01-09T09:49:16.187Z,11.36
2023-01-09T09:51:48.602Z,11.36
2023-01-09T09:54:21.583Z,11.16
2023-01-09T09:56:52.689Z,11.66
2023-01-09T09:59:22.593Z,11.49
2023-01-09T10:01:59.572Z,11.72
2023-01-09T10:04:30.559Z,11.65
2023-01-09T10:07:09.330Z,11.20
2023-01-09T10:09:49.980Z,11.39
2023-01-09T10:12:50.494Z,11.67
2023-01-09T10:15:19.831Z,11.35
2023-01-09T10:18:10.006Z,11.21
2023-01-09T10:20:49.210Z,11.18
2023-01-09T10:23:55.245Z,11.33
2023-01-09T10:26:51.001Z,11.15
2023-01-09T10:29:40.162Z,11.49
2023-01-09T10:32:36.016Z,11.28
2023-01-09T10:35:46.971Z,11.34
2023-01-09T10:38:19.893Z,11.16
2023-01-09T10:41:12.918Z,10.95
2023-01-09T10:43:47.337Z,10.93
2023-01-09T10:46:29.380Z,10.99
2023-01-09T10:49:00.778Z,10.58
2023-01-09T10:52:06.003Z,10.88
2023-01-09T10:54:32.747Z,11.07
2023-01-09T10:57:12.915Z,11.25
2023-01-09T10:59:41.563Z,10.89
2023-01-09T11:02:30.771Z,10.88
2023-01-09T11:04:57.736Z,11.18
2023-01-09T11:07:35.737Z,11.20
2023-01-09T11:10:04.657Z,10.96
2023-01-09T11:12:33.612Z,10.92
2023-01-09T11:15:23.752Z,10.90
2023-01-09T11:17:51.686Z,10.94
2023-01-09T11:20:26.235Z,11.37
2023-01-09T11:22:55.996Z,11.15
2023-01-09T11:25:25.241Z,11.33
2023-01-09T11:28:04.592Z,11.50
2023-01-09T11:30:51.031Z,11.59
2023-01-09T11:33:25.271Z,11.51
2023-01-09T11:36:06.017Z,11.88
2023-01-09T11:38:46.619Z,11.71
2023-01-09T11:41:18.771Z,11.58
2023-01-09T11:43:49.066Z,11.70
2023-01-09T11:46:32.953Z,11.63
2023-01-09T11:49:01.713Z,12.14
2023-01-09T11:51:36.789Z,12.37
2023-01-09T11:54:06.562Z,12.33
2023-01-09T11:56:33.595Z,12.35
2023-01-09T11:59:00.337Z,13.10
2023-01-09T12:01:55.105Z,13.89
2023-01-09T12:04:54.745Z,14.50
2023-01-09T12:07:27.398Z,15.55
2023-01-09T12:10:31.757Z,15.47
2023-01-09T12:13:19.527Z,15.67
2023-01-09T12:16:23.536Z,15.52
2023-01-09T12:19:15.469Z,15.17
2023-01-09T12:22:00.337Z,14.36
2023-01-09T12:24:58.096Z,14.25
2023-01-09T12:27:43.610Z,13.65
2023-01-09T12:30:31.572Z,13.61
2023-01-09T12:33:13.478Z,12.78
2023-01-09T12:35:48.945Z,12.76
2023-01-09T12:38:52.789Z,13.27
2023-01-09T12:41:45.195Z,13.43
2023-01-09T12:44:27.383Z,13.42
2023-01-09T12:47:01.086Z,13.54
2023-01-09T12:49:35.729Z,13.35
2023-01-09T12:52:09.284Z,13.59
2023-01-09T12:55:05.015Z,13.48
2023-01-09T12:57:37.929Z,13.29
2023-01-09T13:00:15.144Z,13.54
2023-01-09T13:03:03.823Z,13.59
2023-01-09T13:05:45.246Z,13.45
2023-01-09T13:08:24.231Z,13.07
2023-01-09T13:11:05.602Z,12.78
2023-01-09T13:13:51.025Z,12.85
2023-01-09T13:16:27.332Z,12.78
2023-01-09T13:19:03.415Z,12.63
2023-01-09T13:21:31.205Z,12.79
2023-01-09T13:24:00.833Z,13.02
2023-01-09T13:26:32.916Z,13.00
2023-01-09T13:29:12.833Z,12.86
2023-01-09T13:31:47.148Z,12.66
2023-01-09T13:34:22.866Z,12.59
2023-01-09T13:36:52.293Z,12.29
2023-01-09T13:39:32.277Z,12.59
2023-01-09T13:42:25.629Z,13.12
2023-01-09T13:44:55.925Z,12.87
2023-01-09T13:47:29.045Z,13.33
2023-01-09T13:50:09.290Z,13.16
2023-01-09T13:52:37.524Z,12.94
2023-01-09T13:55:16.231Z,12.81
2023-01-09T13:58:05.729Z,12.50
2023-01-09T14:00:35.121Z,12.64
2023-01-09T14:03:04.839Z,12.58
2023-01-09T14:05:31.446Z,12.32
2023-01-09T14:08:04.133Z,12.01
2023-01-09T14:10:39.213Z,12.33
2023-01-09T14:13:09.055Z,12.16
2023-01-09T14:15:41.350Z,12.37
2023-01-09T14:18:17.092Z,12.53
2023-01-09T14:20:54.572Z,12.06
2023-01-09T14:26:44.918Z,11.93
2023-01-09T14:29:43.834Z,12.02
2023-01-09T14:32:23.093Z,11.77
2023-01-09T14:34:52.375Z,11.77
2023-01-09T14:37:20.354Z,11.70
2023-01-09T14:39:49.952Z,11.49
2023-01-09T14:42:22.722Z,11.83
2023-01-09T14:44:55.376Z,11.56
2023-01-09T14:47:31.364Z,11.08
2023-01-09T14:50:06.588Z,11.38
2023-01-09T14:52:37.896Z,11.11
2023-01-09T14:55:18.429Z,11.33
2023-01-09T14:57:45.111Z,11.36
2023-01-09T15:00:11.795Z,11.51
2023-01-09T15:02:39.826Z,11.23
2023-01-09T15:05:10.208Z,11.08
2023-01-09T15:07:44.290Z,11.27
2023-01-09T15:10:22.055Z,10.96
2023-01-09T15:12:51.570Z,11.00
2023-01-09T15:15:19.982Z,10.77
2023-01-09T15:17:56.614Z,11.04
2023-01-09T15:20:29.912Z,11.03
2023-01-09T15:22:58.266Z,10.93
2023-01-09T15:25:38.204Z,10.88
2023-01-09T15:28:25.168Z,10.68
2023-01-09T15:31:04.681Z,10.43
2023-01-09T15:33:32.053Z,10.70
2023-01-09T15:36:02.621Z,10.47
2023-01-09T15:38:32.550Z,10.61
2023-01-09T15:41:04.284Z,10.76
2023-01-09T15:43:31.878Z,10.72
2023-01-09T15:45:59.416Z,10.80
2023-01-09T15:48:34.485Z,10.89
2023-01-09T15:51:10.211Z,10.73
2023-01-09T15:53:37.242Z,10.73
2023-01-09T15:56:12.840Z,10.99
2023-01-09T15:58:46.952Z,10.76
2023-01-09T16:01:34.751Z,10.82
2023-01-09T16:04:06.838Z,10.71
2023-01-09T16:06:45.291Z,10.96
2023-01-09T16:09:23.765Z,10.77
2023-01-09T16:11:53.665Z,10.82
2023-01-09T16:14:22.117Z,10.90
2023-01-09T16:16:51.244Z,10.84
2023-01-09T16:19:31.421Z,10.78
2023-01-09T16:22:00.114Z,10.76
2023-01-09T16:24:34.685Z,10.56
2023-01-09T16:27:30.481Z,10.76
2023-01-09T16:30:29.848Z,10.73
2023-01-09T16:32:56.580Z,10.57
2023-01-09T16:35:26.077Z,10.68
2023-01-09T16:37:52.705Z,10.82
2023-01-09T16:40:22.005Z,10.83
2023-01-09T16:43:00.675Z,10.77
2023-01-09T16:45:36.332Z,10.75
2023-01-09T16:48:12.208Z,10.68
2023-01-09T16:50:40.190Z,10.85
2023-01-09T16:53:15.361Z,10.92
2023-01-09T16:55:42.107Z,10.89
2023-01-09T16:58:15.978Z,10.83
2023-01-09T17:00:44.031Z,10.99
2023-01-09T17:03:17.724Z,10.81
2023-01-09T17:05:44.476Z,10.92
2023-01-09T17:08:29.725Z,10.80
2023-01-09T17:10:57.522Z,11.05
2023-01-09T17:13:25.281Z,11.13
2023-01-09T17:15:54.303Z,10.79
2023-01-09T17:18:23.550Z,10.58
2023-01-09T17:20:53.608Z,10.59
2023-01-09T17:23:22.358Z,10.68
2023-01-09T17:26:14.712Z,10.66
2023-01-09T17:28:48.044Z,10.61
2023-01-09T17:31:14.791Z,10.74
2023-01-09T17:33:41.948Z,10.96
2023-01-09T17:36:32.148Z,10.58
2023-01-09T17:38:59.638Z,10.42
2023-01-09T17:41:29.127Z,10.55
2023-01-09T17:43:56.882Z,10.60
2023-01-09T17:46:31.964Z,10.58
2023-01-09T17:48:59.655Z,10.60
2023-01-09T17:51:27.364Z,10.60
2023-01-09T17:53:54.060Z,10.85
2023-01-09T17:56:27.029Z,10.40
2023-01-09T17:58:54.148Z,10.62
2023-01-09T18:01:20.866Z,10.67
2023-01-09T18:03:48.876Z,10.71
2023-01-09T18:06:17.892Z,10.77
2023-01-09T18:08:45.515Z,10.79
2023-01-09T18:11:17.620Z,10.72
2023-01-09T18:13:45.553Z,10.55
2023-01-09T18:16:14.811Z,10.68
2023-01-09T18:18:41.800Z,10.51
2023-01-09T18:21:09.413Z,10.32
2023-01-09T18:23:36.476Z,10.28
2023-01-09T18:26:07.521Z,10.67
2023-01-09T18:28:37.829Z,10.75
2023-01-09T18:31:05.841Z,10.39
2023-01-09T18:33:32.856Z,10.81
2023-01-09T18:36:06.897Z,10.45
2023-01-09T18:38:33.725Z,10.62
2023-01-09T18:41:01.974Z,10.81
2023-01-09T18:43:29.115Z,10.58
2023-01-09T18:45:56.703Z,10.55
2023-01-09T18:48:23.931Z,10.54
2023-01-09T18:50:50.604Z,10.43
2023-01-09T18:53:17.252Z,10.30
2023-01-09T18:55:43.879Z,10.36
2023-01-09T18:58:10.573Z,10.38
2023-01-09T19:00:37.284Z,10.47
2023-01-09T19:03:03.939Z,10.23
2023-01-09T19:05:32.393Z,10.47
2023-01-09T19:07:59.110Z,10.39
2023-01-09T19:10:25.801Z,10.46
2023-01-09T19:12:52.541Z,10.48
2023-01-09T19:15:19.200Z,10.51
2023-01-09T19:17:46.874Z,10.11
2023-01-09T19:20:13.647Z,10.13
2023-01-09T19:22:40.325Z,10.42
2023-01-09T19:25:07.469Z,10.37
2023-01-09T19:27:34.292Z,10.47
2023-01-09T19:30:00.936Z,10.36
2023-01-09T19:32:27.759Z,10.42
2023-01-09T19:34:54.445Z,10.46
2023-01-09T19:37:21.367Z,10.34
2023-01-09T19:39:48.124Z,10.43
2023-01-09T19:42:17.990Z,10.30
2023-01-09T19:44:46.151Z,9.98
2023-01-09T19:47:13.974Z,10.16
2023-01-09T19:49:40.693Z,10.16
2023-01-09T19:52:07.463Z,10.15
2023-01-09T19:54:34.207Z,10.25
2023-01-09T19:57:00.849Z,10.26
2023-01-09T19:59:27.476Z,10.48
2023-01-09T20:01:55.193Z,10.35
2023-01-09T20:04:21.960Z,10.29
2023-01-09T20:06:49.613Z,10.51
2023-01-09T20:09:18.529Z,10.50
2023-01-09T20:11:45.287Z,10.27
2023-01-09T20:14:16.121Z,10.41
2023-01-09T20:16:43.579Z,10.05
2023-01-09T20:19:12.181Z,10.25
2023-01-09T20:21:39.005Z,10.24
2023-01-09T20:24:06.230Z,10.40
2023-01-09T20:26:37.243Z,10.06
2023-01-09T20:29:04.321Z,10.16
2023-01-09T20:31:31.346Z,9.98
2023-01-09T20:34:01.727Z,10.09
2023-01-09T20:36:30.417Z,10.05
2023-01-09T20:39:00.315Z,10.25
2023-01-09T20:41:29.359Z,10.15
2023-01-09T20:44:07.806Z,10.21
2023-01-09T20:46:38.577Z,10.00
2023-01-09T20:49:07.646Z,10.20
2023-01-09T20:51:35.484Z,9.94
2023-01-09T20:54:03.282Z,9.90
2023-01-09T20:56:31.582Z,9.85
2023-01-09T20:58:59.708Z,10.00
2023-01-09T21:01:27.919Z,10.06
2023-01-09T21:03:56.157Z,10.06
2023-01-09T21:06:24.214Z,10.20
2023-01-09T21:08:52.858Z,10.06
2023-01-09T21:11:21.225Z,10.28
2023-01-09T21:13:48.361Z,10.17
2023-01-09T21:16:19.720Z,10.11
2023-01-09T21:18:47.231Z,10.05
2023-01-09T21:21:16.783Z,10.21
2023-01-09T21:23:52.126Z,10.13
2023-01-09T21:26:22.460Z,10.18
2023-01-09T21:28:51.262Z,10.13
2023-01-09T21:31:20.583Z,9.95
2023-01-09T21:33:47.935Z,9.88
2023-01-09T21:36:15.820Z,10.05
2023-01-09T21:38:42.931Z,10.09
2023-01-09T21:41:28.774Z,9.94
2023-01-09T21:44:14.165Z,10.06
2023-01-09T21:46:53.132Z,10.15
2023-01-09T21:49:20.891Z,10.31
2023-01-09T21:51:47.688Z,10.33
2023-01-09T21:54:14.952Z,10.29
2023-01-09T21:56:41.581Z,10.39
2023-01-09T21:59:08.529Z,10.37
2023-01-09T22:01:35.225Z,10.43
2023-01-09T22:04:01.949Z,10.34
2023-01-09T22:06:28.774Z,10.43
2023-01-09T22:08:56.050Z,10.40
2023-01-09T22:11:23.065Z,10.10
2023-01-09T22:13:50.943Z,10.15
2023-01-09T22:16:18.606Z,10.24
2023-01-09T22:18:45.466Z,10.16
2023-01-09T22:21:12.798Z,9.84
2023-01-09T22:23:39.666Z,9.41
2023-01-09T22:26:10.630Z,9.72
2023-01-09T22:28:37.400Z,9.73
2023-01-09T22:31:12.331Z,9.63
2023-01-09T22:33:40.058Z,9.54
2023-01-09T22:36:09.941Z,9.52
2023-01-09T22:38:37.208Z,9.79
2023-01-09T22:41:04.427Z,9.92
2023-01-09T22:43:32.105Z,9.98
2023-01-09T22:46:03.243Z,10.04
2023-01-09T22:48:34.447Z,10.06
2023-01-09T22:51:02.673Z,9.91
2023-01-09T22:53:30.266Z,9.94
2023-01-09T22:55:58.912Z,9.77
2023-01-09T22:58:27.221Z,9.73
2023-01-09T23:00:54.504Z,9.73
2023-01-09T23:03:22.044Z,9.79
2023-01-09T23:05:49.179Z,9.85
2023-01-09T23:08:15.983Z,9.98
2023-01-09T23:10:43.012Z,9.89
2023-01-09T23:13:09.656Z,10.01
2023-01-09T23:15:36.303Z,10.00
2023-01-09T23:18:02.960Z,10.02
2023-01-09T23:20:29.618Z,10.00
2023-01-09T23:22:58.902Z,10.10
2023-01-09T23:25:25.867Z,10.16
2023-01-09T23:27:52.466Z,9.97
2023-01-09T23:30:19.195Z,10.12
2023-01-09T23:32:45.985Z,10.13
2023-01-09T23:35:12.703Z,10.14
2023-01-09T23:37:39.353Z,10.14
2023-01-09T23:40:06.475Z,9.78
2023-01-09T23:42:51.865Z,10.01
2023-01-09T23:45:18.669Z,10.13
2023-01-09T23:47:45.321Z,10.13
2023-01-09T23:50:12.237Z,10.05
2023-01-09T23:52:38.842Z,10.07
2023-01-09T23:55:06.365Z,10.19
2023-01-09T23:57:33.144Z,10.20
2023-01-09T23:59:59.765Z,10.21
